sensor_id;sensor_type;location;lat;lon;timestamp;P1;durP1;ratioP1;P2;durP2;ratioP2
11384;SDS011;5747;56.748;13.882;2023-11-18T00:00:55;3.77;;;2.40;;
11384;SDS011;5747;56.748;13.882;2023-11-18T00:03:26;5.00;;;2.63;;
11384;SDS011;5747;56.748;13.882;2023-11-18T00:05:54;4.47;;;2.63;;
11384;SDS011;5747;56.748;13.882;2023-11-18T00:08:23;4.83;;;2.70;;
11384;SDS011;5747;56.748;13.882;2023-11-18T00:10:51;3.90;;;2.70;;
11384;SDS011;5747;56.748;13.882;2023-11-18T00:13:20;5.30;;;2.57;;
11384;SDS011;5747;56.748;13.882;2023-11-18T00:15:48;2.90;;;2.40;;
11384;SDS011;5747;56.748;13.882;2023-11-18T00:18:16;3.70;;;2.50;;
11384;SDS011;5747;56.748;13.882;2023-11-18T00:20:46;4.97;;;2.93;;
11384;SDS011;5747;56.748;13.882;2023-11-18T00:23:16;4.57;;;2.40;;
11384;SDS011;5747;56.748;13.882;2023-11-18T00:25:47;3.97;;;2.30;;
11384;SDS011;5747;56.748;13.882;2023-11-18T00:28:15;4.67;;;2.90;;
11384;SDS011;5747;56.748;13.882;2023-11-18T00:30:46;8.07;;;2.73;;
11384;SDS011;5747;56.748;13.882;2023-11-18T00:33:14;3.80;;;2.67;;
11384;SDS011;5747;56.748;13.882;2023-11-18T00:35:42;5.03;;;2.67;;
11384;SDS011;5747;56.748;13.882;2023-11-18T00:38:13;4.10;;;2.60;;
11384;SDS011;5747;56.748;13.882;2023-11-18T00:40:42;5.30;;;2.87;;
11384;SDS011;5747;56.748;13.882;2023-11-18T00:43:10;3.13;;;2.40;;
11384;SDS011;5747;56.748;13.882;2023-11-18T00:45:38;5.03;;;2.40;;
11384;SDS011;5747;56.748;13.882;2023-11-18T00:48:07;3.77;;;2.27;;
11384;SDS011;5747;56.748;13.882;2023-11-18T00:50:35;3.87;;;2.07;;
11384;SDS011;5747;56.748;13.882;2023-11-18T00:53:04;4.23;;;2.30;;
11384;SDS011;5747;56.748;13.882;2023-11-18T00:55:34;2.83;;;2.27;;
11384;SDS011;5747;56.748;13.882;2023-11-18T00:58:02;3.63;;;2.60;;
11384;SDS011;5747;56.748;13.882;2023-11-18T01:00:31;3.50;;;2.23;;
11384;SDS011;5747;56.748;13.882;2023-11-18T01:03:01;3.53;;;2.13;;
11384;SDS011;5747;56.748;13.882;2023-11-18T01:05:29;3.97;;;2.40;;
11384;SDS011;5747;56.748;13.882;2023-11-18T01:07:58;3.23;;;2.30;;
11384;SDS011;5747;56.748;13.882;2023-11-18T01:10:26;4.23;;;2.50;;
11384;SDS011;5747;56.748;13.882;2023-11-18T01:12:57;3.50;;;2.60;;
11384;SDS011;5747;56.748;13.882;2023-11-18T01:15:25;3.33;;;2.47;;
11384;SDS011;5747;56.748;13.882;2023-11-18T01:17:53;3.63;;;2.67;;
11384;SDS011;5747;56.748;13.882;2023-11-18T01:20:21;3.60;;;2.20;;
11384;SDS011;5747;56.748;13.882;2023-11-18T01:22:49;4.07;;;2.50;;
11384;SDS011;5747;56.748;13.882;2023-11-18T01:25:18;4.50;;;2.70;;
11384;SDS011;5747;56.748;13.882;2023-11-18T01:27:46;3.80;;;2.53;;
11384;SDS011;5747;56.748;13.882;2023-11-18T01:30:17;3.77;;;2.50;;
11384;SDS011;5747;56.748;13.882;2023-11-18T01:32:45;3.93;;;2.60;;
11384;SDS011;5747;56.748;13.882;2023-11-18T01:35:13;4.03;;;2.37;;
11384;SDS011;5747;56.748;13.882;2023-11-18T01:37:41;3.47;;;2.30;;
11384;SDS011;5747;56.748;13.882;2023-11-18T01:40:10;4.13;;;2.60;;
11384;SDS011;5747;56.748;13.882;2023-11-18T01:42:41;5.40;;;3.00;;
11384;SDS011;5747;56.748;13.882;2023-11-18T01:45:10;5.13;;;2.77;;
11384;SDS011;5747;56.748;13.882;2023-11-18T01:47:40;5.03;;;2.77;;
11384;SDS011;5747;56.748;13.882;2023-11-18T01:50:09;3.60;;;2.60;;
11384;SDS011;5747;56.748;13.882;2023-11-18T01:52:40;5.73;;;2.80;;
11384;SDS011;5747;56.748;13.882;2023-11-18T01:55:12;3.67;;;2.60;;
11384;SDS011;5747;56.748;13.882;2023-11-18T01:57:40;5.37;;;2.90;;
11384;SDS011;5747;56.748;13.882;2023-11-18T02:00:11;3.33;;;2.47;;
11384;SDS011;5747;56.748;13.882;2023-11-18T02:02:41;4.40;;;3.07;;
11384;SDS011;5747;56.748;13.882;2023-11-18T02:05:11;4.37;;;2.80;;
11384;SDS011;5747;56.748;13.882;2023-11-18T02:07:39;3.90;;;2.77;;
11384;SDS011;5747;56.748;13.882;2023-11-18T02:10:08;3.57;;;2.47;;
11384;SDS011;5747;56.748;13.882;2023-11-18T02:12:38;5.53;;;2.90;;
11384;SDS011;5747;56.748;13.882;2023-11-18T02:15:11;4.00;;;2.80;;
11384;SDS011;5747;56.748;13.882;2023-11-18T02:17:43;4.80;;;2.80;;
11384;SDS011;5747;56.748;13.882;2023-11-18T02:20:13;4.67;;;3.10;;
11384;SDS011;5747;56.748;13.882;2023-11-18T02:22:44;4.50;;;2.87;;
11384;SDS011;5747;56.748;13.882;2023-11-18T02:25:14;5.77;;;3.20;;
11384;SDS011;5747;56.748;13.882;2023-11-18T02:27:45;3.87;;;2.70;;
11384;SDS011;5747;56.748;13.882;2023-11-18T02:30:17;4.10;;;2.70;;
11384;SDS011;5747;56.748;13.882;2023-11-18T02:32:46;3.47;;;2.60;;
11384;SDS011;5747;56.748;13.882;2023-11-18T02:35:21;4.70;;;2.87;;
11384;SDS011;5747;56.748;13.882;2023-11-18T02:37:53;5.60;;;2.70;;
11384;SDS011;5747;56.748;13.882;2023-11-18T02:40:24;4.53;;;2.70;;
11384;SDS011;5747;56.748;13.882;2023-11-18T02:43:03;5.50;;;2.90;;
11384;SDS011;5747;56.748;13.882;2023-11-18T02:45:32;4.27;;;2.77;;
11384;SDS011;5747;56.748;13.882;2023-11-18T02:48:03;3.97;;;2.90;;
11384;SDS011;5747;56.748;13.882;2023-11-18T02:50:34;5.33;;;3.00;;
11384;SDS011;5747;56.748;13.882;2023-11-18T02:53:03;3.83;;;2.90;;
11384;SDS011;5747;56.748;13.882;2023-11-18T02:55:32;4.37;;;2.93;;
11384;SDS011;5747;56.748;13.882;2023-11-18T02:58:00;4.63;;;3.13;;
11384;SDS011;5747;56.748;13.882;2023-11-18T03:00:33;4.13;;;3.03;;
11384;SDS011;5747;56.748;13.882;2023-11-18T03:03:01;6.03;;;2.60;;
11384;SDS011;5747;56.748;13.882;2023-11-18T03:05:30;5.03;;;2.80;;
11384;SDS011;5747;56.748;13.882;2023-11-18T03:07:59;3.83;;;2.87;;
11384;SDS011;5747;56.748;13.882;2023-11-18T03:10:27;3.80;;;2.87;;
11384;SDS011;5747;56.748;13.882;2023-11-18T03:12:56;4.20;;;2.80;;
11384;SDS011;5747;56.748;13.882;2023-11-18T03:15:24;4.43;;;2.97;;
11384;SDS011;5747;56.748;13.882;2023-11-18T03:17:54;4.53;;;3.10;;
11384;SDS011;5747;56.748;13.882;2023-11-18T03:20:23;4.70;;;2.57;;
11384;SDS011;5747;56.748;13.882;2023-11-18T03:22:52;3.57;;;2.53;;
11384;SDS011;5747;56.748;13.882;2023-11-18T03:25:21;4.57;;;2.63;;
11384;SDS011;5747;56.748;13.882;2023-11-18T03:27:49;3.70;;;2.60;;
11384;SDS011;5747;56.748;13.882;2023-11-18T03:30:21;3.93;;;2.40;;
11384;SDS011;5747;56.748;13.882;2023-11-18T03:32:49;4.27;;;2.93;;
11384;SDS011;5747;56.748;13.882;2023-11-18T03:35:18;4.20;;;2.73;;
11384;SDS011;5747;56.748;13.882;2023-11-18T03:37:46;3.77;;;2.87;;
11384;SDS011;5747;56.748;13.882;2023-11-18T03:40:15;5.03;;;2.67;;
11384;SDS011;5747;56.748;13.882;2023-11-18T03:42:43;4.03;;;2.60;;
11384;SDS011;5747;56.748;13.882;2023-11-18T03:45:13;4.47;;;2.90;;
11384;SDS011;5747;56.748;13.882;2023-11-18T03:47:44;4.00;;;2.80;;
11384;SDS011;5747;56.748;13.882;2023-11-18T03:50:14;4.67;;;3.00;;
11384;SDS011;5747;56.748;13.882;2023-11-18T03:52:43;5.50;;;2.60;;
11384;SDS011;5747;56.748;13.882;2023-11-18T03:55:11;3.87;;;2.70;;
11384;SDS011;5747;56.748;13.882;2023-11-18T03:57:40;3.60;;;2.77;;
11384;SDS011;5747;56.748;13.882;2023-11-18T04:00:08;4.63;;;2.70;;
11384;SDS011;5747;56.748;13.882;2023-11-18T04:02:39;3.50;;;2.70;;
11384;SDS011;5747;56.748;13.882;2023-11-18T04:05:08;5.47;;;2.73;;
11384;SDS011;5747;56.748;13.882;2023-11-18T04:07:36;4.03;;;2.73;;
11384;SDS011;5747;56.748;13.882;2023-11-18T04:10:09;3.83;;;2.50;;
11384;SDS011;5747;56.748;13.882;2023-11-18T04:12:38;4.67;;;3.03;;
11384;SDS011;5747;56.748;13.882;2023-11-18T04:15:06;3.77;;;2.50;;
11384;SDS011;5747;56.748;13.882;2023-11-18T04:17:35;3.27;;;2.50;;
11384;SDS011;5747;56.748;13.882;2023-11-18T04:20:05;5.43;;;2.83;;
11384;SDS011;5747;56.748;13.882;2023-11-18T04:22:38;4.73;;;2.90;;
11384;SDS011;5747;56.748;13.882;2023-11-18T04:25:07;5.37;;;2.67;;
11384;SDS011;5747;56.748;13.882;2023-11-18T04:27:39;5.57;;;2.90;;
11384;SDS011;5747;56.748;13.882;2023-11-18T04:30:12;3.63;;;2.50;;
11384;SDS011;5747;56.748;13.882;2023-11-18T04:32:40;3.87;;;2.73;;
11384;SDS011;5747;56.748;13.882;2023-11-18T04:35:10;4.33;;;2.97;;
11384;SDS011;5747;56.748;13.882;2023-11-18T04:37:39;4.80;;;3.00;;
11384;SDS011;5747;56.748;13.882;2023-11-18T04:40:12;4.03;;;2.60;;
11384;SDS011;5747;56.748;13.882;2023-11-18T04:42:40;3.27;;;2.60;;
11384;SDS011;5747;56.748;13.882;2023-11-18T04:45:11;4.80;;;2.57;;
11384;SDS011;5747;56.748;13.882;2023-11-18T04:47:41;5.23;;;2.80;;
11384;SDS011;5747;56.748;13.882;2023-11-18T04:50:11;3.47;;;2.50;;
11384;SDS011;5747;56.748;13.882;2023-11-18T04:52:39;5.43;;;2.97;;
11384;SDS011;5747;56.748;13.882;2023-11-18T04:55:08;4.53;;;2.63;;
11384;SDS011;5747;56.748;13.882;2023-11-18T04:57:41;4.13;;;2.80;;
11384;SDS011;5747;56.748;13.882;2023-11-18T05:00:10;6.93;;;2.70;;
11384;SDS011;5747;56.748;13.882;2023-11-18T05:02:42;4.33;;;2.93;;
11384;SDS011;5747;56.748;13.882;2023-11-18T05:05:11;5.27;;;2.97;;
11384;SDS011;5747;56.748;13.882;2023-11-18T05:07:41;5.60;;;3.47;;
11384;SDS011;5747;56.748;13.882;2023-11-18T05:10:09;3.60;;;2.80;;
11384;SDS011;5747;56.748;13.882;2023-11-18T05:12:38;5.57;;;2.90;;
11384;SDS011;5747;56.748;13.882;2023-11-18T05:15:08;4.77;;;3.00;;
11384;SDS011;5747;56.748;13.882;2023-11-18T05:17:37;4.97;;;2.80;;
11384;SDS011;5747;56.748;13.882;2023-11-18T05:20:06;4.10;;;2.63;;
11384;SDS011;5747;56.748;13.882;2023-11-18T05:22:35;6.10;;;2.97;;
11384;SDS011;5747;56.748;13.882;2023-11-18T05:25:04;5.27;;;3.07;;
11384;SDS011;5747;56.748;13.882;2023-11-18T05:27:34;4.50;;;3.07;;
11384;SDS011;5747;56.748;13.882;2023-11-18T05:30:02;4.20;;;2.90;;
11384;SDS011;5747;56.748;13.882;2023-11-18T05:32:33;6.40;;;3.60;;
11384;SDS011;5747;56.748;13.882;2023-11-18T05:35:02;4.60;;;2.70;;
11384;SDS011;5747;56.748;13.882;2023-11-18T05:37:32;4.77;;;3.10;;
11384;SDS011;5747;56.748;13.882;2023-11-18T05:40:05;4.50;;;2.67;;
11384;SDS011;5747;56.748;13.882;2023-11-18T05:42:34;7.40;;;3.30;;
11384;SDS011;5747;56.748;13.882;2023-11-18T05:45:06;55.20;;;5.10;;
11384;SDS011;5747;56.748;13.882;2023-11-18T05:47:38;26.57;;;3.93;;
11384;SDS011;5747;56.748;13.882;2023-11-18T05:50:07;10.13;;;3.27;;
11384;SDS011;5747;56.748;13.882;2023-11-18T05:52:36;4.60;;;2.90;;
11384;SDS011;5747;56.748;13.882;2023-11-18T05:55:04;6.13;;;2.90;;
11384;SDS011;5747;56.748;13.882;2023-11-18T05:57:33;4.60;;;2.87;;
11384;SDS011;5747;56.748;13.882;2023-11-18T06:00:02;5.77;;;2.50;;
11384;SDS011;5747;56.748;13.882;2023-11-18T06:02:38;4.67;;;2.80;;
11384;SDS011;5747;56.748;13.882;2023-11-18T06:05:07;4.07;;;2.83;;
11384;SDS011;5747;56.748;13.882;2023-11-18T06:07:36;4.43;;;2.73;;
11384;SDS011;5747;56.748;13.882;2023-11-18T06:10:07;4.77;;;3.40;;
11384;SDS011;5747;56.748;13.882;2023-11-18T06:12:35;6.30;;;2.67;;
11384;SDS011;5747;56.748;13.882;2023-11-18T06:15:06;5.83;;;3.27;;
11384;SDS011;5747;56.748;13.882;2023-11-18T06:17:39;6.43;;;3.13;;
11384;SDS011;5747;56.748;13.882;2023-11-18T06:20:09;4.87;;;3.10;;
11384;SDS011;5747;56.748;13.882;2023-11-18T06:22:37;6.03;;;3.30;;
11384;SDS011;5747;56.748;13.882;2023-11-18T06:25:06;6.33;;;3.33;;
11384;SDS011;5747;56.748;13.882;2023-11-18T06:27:35;5.43;;;2.93;;
11384;SDS011;5747;56.748;13.882;2023-11-18T06:30:03;7.00;;;3.47;;
11384;SDS011;5747;56.748;13.882;2023-11-18T06:32:33;7.60;;;3.40;;
11384;SDS011;5747;56.748;13.882;2023-11-18T06:35:02;9.87;;;3.37;;
11384;SDS011;5747;56.748;13.882;2023-11-18T06:37:32;5.73;;;3.10;;
11384;SDS011;5747;56.748;13.882;2023-11-18T06:40:00;4.40;;;2.97;;
11384;SDS011;5747;56.748;13.882;2023-11-18T06:42:32;4.77;;;3.20;;
11384;SDS011;5747;56.748;13.882;2023-11-18T06:45:04;5.03;;;2.90;;
11384;SDS011;5747;56.748;13.882;2023-11-18T06:47:33;4.67;;;3.17;;
11384;SDS011;5747;56.748;13.882;2023-11-18T06:50:04;7.60;;;3.40;;
11384;SDS011;5747;56.748;13.882;2023-11-18T06:52:36;5.97;;;2.83;;
11384;SDS011;5747;56.748;13.882;2023-11-18T06:55:05;4.07;;;2.87;;
11384;SDS011;5747;56.748;13.882;2023-11-18T06:57:34;4.90;;;2.87;;
11384;SDS011;5747;56.748;13.882;2023-11-18T07:00:02;5.97;;;3.33;;
11384;SDS011;5747;56.748;13.882;2023-11-18T07:02:35;4.53;;;3.10;;
11384;SDS011;5747;56.748;13.882;2023-11-18T07:05:05;5.83;;;3.33;;
11384;SDS011;5747;56.748;13.882;2023-11-18T07:07:33;4.70;;;3.07;;
11384;SDS011;5747;56.748;13.882;2023-11-18T07:10:04;4.13;;;2.80;;
11384;SDS011;5747;56.748;13.882;2023-11-18T07:12:33;6.50;;;2.87;;
11384;SDS011;5747;56.748;13.882;2023-11-18T07:15:03;5.27;;;3.10;;
11384;SDS011;5747;56.748;13.882;2023-11-18T07:17:33;6.13;;;2.80;;
11384;SDS011;5747;56.748;13.882;2023-11-18T07:20:01;5.33;;;2.90;;
11384;SDS011;5747;56.748;13.882;2023-11-18T07:22:33;4.10;;;2.80;;
11384;SDS011;5747;56.748;13.882;2023-11-18T07:25:02;3.60;;;2.63;;
11384;SDS011;5747;56.748;13.882;2023-11-18T07:27:33;47.70;;;6.27;;
11384;SDS011;5747;56.748;13.882;2023-11-18T07:30:02;14.70;;;3.73;;
11384;SDS011;5747;56.748;13.882;2023-11-18T07:32:36;11.53;;;3.10;;
11384;SDS011;5747;56.748;13.882;2023-11-18T07:35:06;6.67;;;3.00;;
11384;SDS011;5747;56.748;13.882;2023-11-18T07:37:37;7.00;;;3.23;;
11384;SDS011;5747;56.748;13.882;2023-11-18T07:40:06;6.90;;;3.47;;
11384;SDS011;5747;56.748;13.882;2023-11-18T07:42:38;5.90;;;3.50;;
11384;SDS011;5747;56.748;13.882;2023-11-18T07:45:07;6.07;;;2.77;;
11384;SDS011;5747;56.748;13.882;2023-11-18T07:47:44;8.17;;;3.17;;
11384;SDS011;5747;56.748;13.882;2023-11-18T07:50:15;6.57;;;3.30;;
11384;SDS011;5747;56.748;13.882;2023-11-18T07:52:45;5.90;;;3.47;;
11384;SDS011;5747;56.748;13.882;2023-11-18T07:55:14;6.00;;;3.80;;
11384;SDS011;5747;56.748;13.882;2023-11-18T07:57:42;4.93;;;3.67;;
11384;SDS011;5747;56.748;13.882;2023-11-18T08:00:10;4.27;;;3.10;;
11384;SDS011;5747;56.748;13.882;2023-11-18T08:02:42;12.73;;;4.13;;
11384;SDS011;5747;56.748;13.882;2023-11-18T08:05:11;8.87;;;3.63;;
11384;SDS011;5747;56.748;13.882;2023-11-18T08:07:42;4.93;;;3.37;;
11384;SDS011;5747;56.748;13.882;2023-11-18T08:10:13;31.07;;;5.03;;
11384;SDS011;5747;56.748;13.882;2023-11-18T08:12:46;6.33;;;3.33;;
11384;SDS011;5747;56.748;13.882;2023-11-18T08:15:14;5.27;;;3.13;;
11384;SDS011;5747;56.748;13.882;2023-11-18T08:17:42;5.23;;;3.30;;
11384;SDS011;5747;56.748;13.882;2023-11-18T08:20:10;5.53;;;3.43;;
11384;SDS011;5747;56.748;13.882;2023-11-18T08:22:41;6.63;;;4.07;;
11384;SDS011;5747;56.748;13.882;2023-11-18T08:25:10;6.17;;;4.07;;
11384;SDS011;5747;56.748;13.882;2023-11-18T08:27:41;6.60;;;3.53;;
11384;SDS011;5747;56.748;13.882;2023-11-18T08:30:10;5.70;;;3.87;;
11384;SDS011;5747;56.748;13.882;2023-11-18T08:32:39;7.33;;;4.40;;
11384;SDS011;5747;56.748;13.882;2023-11-18T08:35:10;6.20;;;3.73;;
11384;SDS011;5747;56.748;13.882;2023-11-18T08:37:40;5.90;;;3.87;;
11384;SDS011;5747;56.748;13.882;2023-11-18T08:40:11;7.67;;;4.00;;
11384;SDS011;5747;56.748;13.882;2023-11-18T08:42:43;8.20;;;4.87;;
11384;SDS011;5747;56.748;13.882;2023-11-18T08:45:18;12.40;;;6.20;;
11384;SDS011;5747;56.748;13.882;2023-11-18T08:47:48;11.33;;;5.77;;
11384;SDS011;5747;56.748;13.882;2023-11-18T08:50:19;7.57;;;4.23;;
11384;SDS011;5747;56.748;13.882;2023-11-18T08:52:50;9.30;;;4.43;;
11384;SDS011;5747;56.748;13.882;2023-11-18T08:55:28;7.13;;;4.27;;
11384;SDS011;5747;56.748;13.882;2023-11-18T08:58:10;7.00;;;4.17;;
11384;SDS011;5747;56.748;13.882;2023-11-18T09:00:47;7.23;;;4.47;;
11384;SDS011;5747;56.748;13.882;2023-11-18T09:03:20;7.03;;;3.87;;
11384;SDS011;5747;56.748;13.882;2023-11-18T09:05:54;6.97;;;3.40;;
11384;SDS011;5747;56.748;13.882;2023-11-18T09:08:30;5.80;;;3.90;;
11384;SDS011;5747;56.748;13.882;2023-11-18T09:11:03;7.40;;;4.40;;
11384;SDS011;5747;56.748;13.882;2023-11-18T09:13:33;7.97;;;3.70;;
11384;SDS011;5747;56.748;13.882;2023-11-18T09:16:03;6.03;;;3.80;;
11384;SDS011;5747;56.748;13.882;2023-11-18T09:18:35;7.00;;;4.23;;
11384;SDS011;5747;56.748;13.882;2023-11-18T09:21:09;5.90;;;3.83;;
11384;SDS011;5747;56.748;13.882;2023-11-18T09:23:42;5.10;;;3.60;;
11384;SDS011;5747;56.748;13.882;2023-11-18T09:26:13;5.20;;;3.60;;
11384;SDS011;5747;56.748;13.882;2023-11-18T09:28:43;5.60;;;3.30;;
11384;SDS011;5747;56.748;13.882;2023-11-18T09:31:12;6.33;;;3.40;;
11384;SDS011;5747;56.748;13.882;2023-11-18T09:33:41;9.13;;;3.70;;
11384;SDS011;5747;56.748;13.882;2023-11-18T09:36:13;6.20;;;3.33;;
11384;SDS011;5747;56.748;13.882;2023-11-18T09:38:44;5.77;;;2.90;;
11384;SDS011;5747;56.748;13.882;2023-11-18T09:41:16;4.27;;;2.97;;
11384;SDS011;5747;56.748;13.882;2023-11-18T09:43:45;4.50;;;2.70;;
11384;SDS011;5747;56.748;13.882;2023-11-18T09:46:15;6.90;;;3.10;;
11384;SDS011;5747;56.748;13.882;2023-11-18T09:48:46;4.40;;;2.63;;
11384;SDS011;5747;56.748;13.882;2023-11-18T09:51:20;4.00;;;2.60;;
11384;SDS011;5747;56.748;13.882;2023-11-18T09:53:49;4.27;;;2.60;;
11384;SDS011;5747;56.748;13.882;2023-11-18T09:56:27;4.17;;;2.83;;
11384;SDS011;5747;56.748;13.882;2023-11-18T09:59:07;2.50;;;2.00;;
11384;SDS011;5747;56.748;13.882;2023-11-18T10:01:43;3.10;;;2.00;;
11384;SDS011;5747;56.748;13.882;2023-11-18T10:04:15;3.73;;;2.33;;
11384;SDS011;5747;56.748;13.882;2023-11-18T10:06:45;3.57;;;2.50;;
11384;SDS011;5747;56.748;13.882;2023-11-18T10:09:16;3.20;;;2.13;;
11384;SDS011;5747;56.748;13.882;2023-11-18T10:11:56;2.90;;;1.80;;
11384;SDS011;5747;56.748;13.882;2023-11-18T10:14:32;3.17;;;2.00;;
11384;SDS011;5747;56.748;13.882;2023-11-18T10:17:03;5.03;;;1.97;;
11384;SDS011;5747;56.748;13.882;2023-11-18T10:22:39;3.27;;;2.03;;
11384;SDS011;5747;56.748;13.882;2023-11-18T10:25:08;2.17;;;1.93;;
11384;SDS011;5747;56.748;13.882;2023-11-18T10:27:37;2.60;;;1.70;;
11384;SDS011;5747;56.748;13.882;2023-11-18T10:30:06;3.23;;;1.80;;
11384;SDS011;5747;56.748;13.882;2023-11-18T10:32:55;2.13;;;1.73;;
11384;SDS011;5747;56.748;13.882;2023-11-18T10:35:32;2.13;;;1.50;;
11384;SDS011;5747;56.748;13.882;2023-11-18T10:38:01;2.40;;;1.43;;
11384;SDS011;5747;56.748;13.882;2023-11-18T10:40:31;2.23;;;1.43;;
11384;SDS011;5747;56.748;13.882;2023-11-18T10:43:04;1.50;;;1.40;;
11384;SDS011;5747;56.748;13.882;2023-11-18T10:45:36;1.57;;;1.27;;
11384;SDS011;5747;56.748;13.882;2023-11-18T10:48:09;1.47;;;1.30;;
11384;SDS011;5747;56.748;13.882;2023-11-18T10:50:39;1.63;;;1.20;;
11384;SDS011;5747;56.748;13.882;2023-11-18T10:53:08;2.23;;;1.30;;
11384;SDS011;5747;56.748;13.882;2023-11-18T10:55:38;1.77;;;1.27;;
11384;SDS011;5747;56.748;13.882;2023-11-18T10:58:08;1.33;;;1.10;;
11384;SDS011;5747;56.748;13.882;2023-11-18T11:00:45;1.10;;;1.00;;
11384;SDS011;5747;56.748;13.882;2023-11-18T11:03:15;1.03;;;0.93;;
11384;SDS011;5747;56.748;13.882;2023-11-18T11:05:45;0.70;;;0.70;;
11384;SDS011;5747;56.748;13.882;2023-11-18T11:08:14;0.80;;;0.70;;
11384;SDS011;5747;56.748;13.882;2023-11-18T11:10:58;1.03;;;0.80;;
11384;SDS011;5747;56.748;13.882;2023-11-18T11:13:36;0.70;;;0.60;;
11384;SDS011;5747;56.748;13.882;2023-11-18T11:16:05;0.80;;;0.77;;
11384;SDS011;5747;56.748;13.882;2023-11-18T11:18:39;0.70;;;0.70;;
11384;SDS011;5747;56.748;13.882;2023-11-18T11:21:13;1.10;;;0.70;;
11384;SDS011;5747;56.748;13.882;2023-11-18T11:23:47;0.83;;;0.80;;
11384;SDS011;5747;56.748;13.882;2023-11-18T11:26:23;1.70;;;0.87;;
11384;SDS011;5747;56.748;13.882;2023-11-18T11:29:04;0.90;;;0.80;;
11384;SDS011;5747;56.748;13.882;2023-11-18T11:31:43;0.60;;;0.60;;
11384;SDS011;5747;56.748;13.882;2023-11-18T11:34:21;1.40;;;0.70;;
11384;SDS011;5747;56.748;13.882;2023-11-18T11:36:55;0.77;;;0.70;;
11384;SDS011;5747;56.748;13.882;2023-11-18T11:39:26;1.07;;;0.80;;
11384;SDS011;5747;56.748;13.882;2023-11-18T11:41:56;0.93;;;0.80;;
11384;SDS011;5747;56.748;13.882;2023-11-18T11:44:27;0.90;;;0.70;;
11384;SDS011;5747;56.748;13.882;2023-11-18T11:46:58;0.97;;;0.73;;
11384;SDS011;5747;56.748;13.882;2023-11-18T11:49:31;0.70;;;0.63;;
11384;SDS011;5747;56.748;13.882;2023-11-18T11:52:04;0.60;;;0.57;;
11384;SDS011;5747;56.748;13.882;2023-11-18T11:54:42;0.70;;;0.70;;
11384;SDS011;5747;56.748;13.882;2023-11-18T11:57:16;1.40;;;0.87;;
11384;SDS011;5747;56.748;13.882;2023-11-18T11:59:58;0.70;;;0.70;;
11384;SDS011;5747;56.748;13.882;2023-11-18T12:02:47;1.10;;;0.70;;
11384;SDS011;5747;56.748;13.882;2023-11-18T12:05:16;0.60;;;0.60;;
11384;SDS011;5747;56.748;13.882;2023-11-18T12:07:46;0.60;;;0.60;;
11384;SDS011;5747;56.748;13.882;2023-11-18T12:10:15;0.80;;;0.60;;
11384;SDS011;5747;56.748;13.882;2023-11-18T12:12:47;0.70;;;0.60;;
11384;SDS011;5747;56.748;13.882;2023-11-18T12:18:21;1.20;;;0.50;;
11384;SDS011;5747;56.748;13.882;2023-11-18T12:20:50;0.70;;;0.70;;
11384;SDS011;5747;56.748;13.882;2023-11-18T12:23:22;0.60;;;0.60;;
11384;SDS011;5747;56.748;13.882;2023-11-18T12:25:52;0.47;;;0.47;;
11384;SDS011;5747;56.748;13.882;2023-11-18T12:28:24;0.90;;;0.70;;
11384;SDS011;5747;56.748;13.882;2023-11-18T12:30:55;0.73;;;0.70;;
11384;SDS011;5747;56.748;13.882;2023-11-18T12:43:00;0.83;;;0.70;;
11384;SDS011;5747;56.748;13.882;2023-11-18T12:48:35;0.63;;;0.63;;
11384;SDS011;5747;56.748;13.882;2023-11-18T12:51:10;1.40;;;0.60;;
11384;SDS011;5747;56.748;13.882;2023-11-18T12:53:48;0.97;;;0.70;;
11384;SDS011;5747;56.748;13.882;2023-11-18T12:56:20;1.10;;;0.60;;
11384;SDS011;5747;56.748;13.882;2023-11-18T12:58:50;0.60;;;0.60;;
11384;SDS011;5747;56.748;13.882;2023-11-18T13:01:18;0.63;;;0.47;;
11384;SDS011;5747;56.748;13.882;2023-11-18T13:03:48;0.93;;;0.70;;
11384;SDS011;5747;56.748;13.882;2023-11-18T13:06:16;1.17;;;0.70;;
11384;SDS011;5747;56.748;13.882;2023-11-18T13:08:47;0.90;;;0.60;;
11384;SDS011;5747;56.748;13.882;2023-11-18T13:11:15;1.00;;;0.77;;
11384;SDS011;5747;56.748;13.882;2023-11-18T13:13:43;0.60;;;0.60;;
11384;SDS011;5747;56.748;13.882;2023-11-18T13:16:12;0.70;;;0.70;;
11384;SDS011;5747;56.748;13.882;2023-11-18T13:18:42;0.80;;;0.80;;
11384;SDS011;5747;56.748;13.882;2023-11-18T13:21:15;2.67;;;0.90;;
11384;SDS011;5747;56.748;13.882;2023-11-18T13:23:47;0.70;;;0.70;;
11384;SDS011;5747;56.748;13.882;2023-11-18T13:26:19;0.80;;;0.80;;
11384;SDS011;5747;56.748;13.882;2023-11-18T13:28:47;0.90;;;0.70;;
11384;SDS011;5747;56.748;13.882;2023-11-18T13:31:16;0.73;;;0.73;;
11384;SDS011;5747;56.748;13.882;2023-11-18T13:33:46;0.70;;;0.60;;
11384;SDS011;5747;56.748;13.882;2023-11-18T13:36:17;0.90;;;0.70;;
11384;SDS011;5747;56.748;13.882;2023-11-18T13:38:47;1.70;;;0.70;;
11384;SDS011;5747;56.748;13.882;2023-11-18T13:41:28;0.90;;;0.80;;
11384;SDS011;5747;56.748;13.882;2023-11-18T13:43:58;0.90;;;0.90;;
11384;SDS011;5747;56.748;13.882;2023-11-18T13:46:27;0.60;;;0.53;;
11384;SDS011;5747;56.748;13.882;2023-11-18T13:48:56;0.97;;;0.80;;
11384;SDS011;5747;56.748;13.882;2023-11-18T13:51:27;0.70;;;0.70;;
11384;SDS011;5747;56.748;13.882;2023-11-18T13:53:56;0.80;;;0.80;;
11384;SDS011;5747;56.748;13.882;2023-11-18T13:56:26;0.90;;;0.90;;
11384;SDS011;5747;56.748;13.882;2023-11-18T13:58:57;1.00;;;0.53;;
11384;SDS011;5747;56.748;13.882;2023-11-18T14:01:25;2.00;;;0.70;;
11384;SDS011;5747;56.748;13.882;2023-11-18T14:03:54;3.13;;;1.00;;
11384;SDS011;5747;56.748;13.882;2023-11-18T14:06:30;2.30;;;1.00;;
11384;SDS011;5747;56.748;13.882;2023-11-18T14:08:58;1.30;;;0.90;;
11384;SDS011;5747;56.748;13.882;2023-11-18T14:11:26;2.23;;;1.03;;
11384;SDS011;5747;56.748;13.882;2023-11-18T14:13:54;1.10;;;1.00;;
11384;SDS011;5747;56.748;13.882;2023-11-18T14:16:25;1.73;;;1.30;;
11384;SDS011;5747;56.748;13.882;2023-11-18T14:18:53;1.80;;;1.00;;
11384;SDS011;5747;56.748;13.882;2023-11-18T14:21:21;2.23;;;1.30;;
11384;SDS011;5747;56.748;13.882;2023-11-18T14:23:50;2.00;;;1.20;;
11384;SDS011;5747;56.748;13.882;2023-11-18T14:26:22;2.27;;;1.60;;
11384;SDS011;5747;56.748;13.882;2023-11-18T14:28:50;3.20;;;1.40;;
11384;SDS011;5747;56.748;13.882;2023-11-18T14:31:19;1.10;;;0.83;;
11384;SDS011;5747;56.748;13.882;2023-11-18T14:33:48;1.13;;;1.03;;
11384;SDS011;5747;56.748;13.882;2023-11-18T14:36:17;2.13;;;1.40;;
11384;SDS011;5747;56.748;13.882;2023-11-18T14:38:46;1.63;;;1.30;;
11384;SDS011;5747;56.748;13.882;2023-11-18T14:41:15;1.83;;;1.27;;
11384;SDS011;5747;56.748;13.882;2023-11-18T14:43:46;2.40;;;1.60;;
11384;SDS011;5747;56.748;13.882;2023-11-18T14:46:14;1.83;;;1.63;;
11384;SDS011;5747;56.748;13.882;2023-11-18T14:48:42;2.20;;;1.60;;
11384;SDS011;5747;56.748;13.882;2023-11-18T14:51:10;1.97;;;1.63;;
11384;SDS011;5747;56.748;13.882;2023-11-18T14:53:39;2.37;;;1.90;;
11384;SDS011;5747;56.748;13.882;2023-11-18T14:56:07;2.73;;;1.90;;
11384;SDS011;5747;56.748;13.882;2023-11-18T14:58:37;2.10;;;1.70;;
11384;SDS011;5747;56.748;13.882;2023-11-18T15:01:05;3.40;;;1.60;;
11384;SDS011;5747;56.748;13.882;2023-11-18T15:03:34;2.23;;;1.60;;
11384;SDS011;5747;56.748;13.882;2023-11-18T15:06:02;2.83;;;1.70;;
11384;SDS011;5747;56.748;13.882;2023-11-18T15:08:32;2.07;;;1.70;;
11384;SDS011;5747;56.748;13.882;2023-11-18T15:11:06;3.17;;;1.90;;
11384;SDS011;5747;56.748;13.882;2023-11-18T15:13:36;3.27;;;1.80;;
11384;SDS011;5747;56.748;13.882;2023-11-18T15:16:06;2.40;;;1.70;;
11384;SDS011;5747;56.748;13.882;2023-11-18T15:18:34;2.10;;;1.77;;
11384;SDS011;5747;56.748;13.882;2023-11-18T15:21:03;2.60;;;1.80;;
11384;SDS011;5747;56.748;13.882;2023-11-18T15:23:31;2.27;;;1.73;;
11384;SDS011;5747;56.748;13.882;2023-11-18T15:25:59;2.37;;;1.80;;